sensor_id;sensor_type;location;lat;lon;timestamp;P1;durP1;ratioP1;P2;durP2;ratioP2
30617;SDS011;17384;51.214;9.202;2023-09-12T00:00:54;14.77;;;9.77;;
30617;SDS011;17384;51.214;9.202;2023-09-12T00:03:21;25.45;;;10.23;;
30617;SDS011;17384;51.214;9.202;2023-09-12T00:05:54;19.30;;;11.50;;
30617;SDS011;17384;51.214;9.202;2023-09-12T00:08:21;21.38;;;12.45;;
30617;SDS011;17384;51.214;9.202;2023-09-12T00:10:47;28.80;;;13.98;;
30617;SDS011;17384;51.214;9.202;2023-09-12T00:13:12;26.38;;;14.00;;
30617;SDS011;17384;51.214;9.202;2023-09-12T00:15:37;23.90;;;13.85;;
30617;SDS011;17384;51.214;9.202;2023-09-12T00:18:04;30.92;;;15.48;;
30617;SDS011;17384;51.214;9.202;2023-09-12T00:20:29;30.27;;;14.77;;
30617;SDS011;17384;51.214;9.202;2023-09-12T00:22:54;22.45;;;12.63;;
30617;SDS011;17384;51.214;9.202;2023-09-12T00:25:21;22.40;;;12.90;;
30617;SDS011;17384;51.214;9.202;2023-09-12T00:27:46;23.52;;;12.70;;
30617;SDS011;17384;51.214;9.202;2023-09-12T00:30:13;23.00;;;12.90;;
30617;SDS011;17384;51.214;9.202;2023-09-12T00:32:39;27.98;;;12.80;;
30617;SDS011;17384;51.214;9.202;2023-09-12T00:35:05;24.45;;;13.52;;
30617;SDS011;17384;51.214;9.202;2023-09-12T00:37:31;26.30;;;11.88;;
30617;SDS011;17384;51.214;9.202;2023-09-12T00:39:56;26.20;;;13.10;;
30617;SDS011;17384;51.214;9.202;2023-09-12T00:42:24;25.70;;;12.38;;
30617;SDS011;17384;51.214;9.202;2023-09-12T00:44:50;27.35;;;12.70;;
30617;SDS011;17384;51.214;9.202;2023-09-12T00:47:16;16.63;;;11.13;;
30617;SDS011;17384;51.214;9.202;2023-09-12T00:49:41;29.27;;;13.35;;
30617;SDS011;17384;51.214;9.202;2023-09-12T00:52:08;21.95;;;12.32;;
30617;SDS011;17384;51.214;9.202;2023-09-12T00:54:33;22.63;;;11.18;;
30617;SDS011;17384;51.214;9.202;2023-09-12T00:56:59;16.70;;;11.20;;
30617;SDS011;17384;51.214;9.202;2023-09-12T00:59:24;20.55;;;11.52;;
30617;SDS011;17384;51.214;9.202;2023-09-12T01:01:50;18.90;;;11.98;;
30617;SDS011;17384;51.214;9.202;2023-09-12T01:04:16;23.00;;;12.02;;
30617;SDS011;17384;51.214;9.202;2023-09-12T01:06:41;20.38;;;12.05;;
30617;SDS011;17384;51.214;9.202;2023-09-12T01:09:08;22.55;;;12.45;;
30617;SDS011;17384;51.214;9.202;2023-09-12T01:11:33;28.80;;;13.75;;
30617;SDS011;17384;51.214;9.202;2023-09-12T01:13:59;28.70;;;14.55;;
30617;SDS011;17384;51.214;9.202;2023-09-12T01:16:25;24.35;;;12.95;;
30617;SDS011;17384;51.214;9.202;2023-09-12T01:18:50;29.00;;;12.52;;
30617;SDS011;17384;51.214;9.202;2023-09-12T01:26:29;21.92;;;10.77;;
30617;SDS011;17384;51.214;9.202;2023-09-12T01:29:04;21.80;;;11.00;;
30617;SDS011;17384;51.214;9.202;2023-09-12T01:31:32;19.88;;;10.82;;
30617;SDS011;17384;51.214;9.202;2023-09-12T01:34:11;25.38;;;11.18;;
30617;SDS011;17384;51.214;9.202;2023-09-12T01:36:37;24.45;;;12.95;;
30617;SDS011;17384;51.214;9.202;2023-09-12T01:39:03;15.18;;;11.35;;
30617;SDS011;17384;51.214;9.202;2023-09-12T01:41:29;21.58;;;10.73;;
30617;SDS011;17384;51.214;9.202;2023-09-12T01:43:57;22.48;;;9.43;;
30617;SDS011;17384;51.214;9.202;2023-09-12T01:46:24;20.65;;;10.48;;
30617;SDS011;17384;51.214;9.202;2023-09-12T01:48:51;16.33;;;9.88;;
30617;SDS011;17384;51.214;9.202;2023-09-12T01:51:20;21.10;;;10.70;;
30617;SDS011;17384;51.214;9.202;2023-09-12T01:53:47;24.40;;;12.18;;
30617;SDS011;17384;51.214;9.202;2023-09-12T01:56:14;25.00;;;12.40;;
30617;SDS011;17384;51.214;9.202;2023-09-12T01:58:40;19.33;;;11.60;;
30617;SDS011;17384;51.214;9.202;2023-09-12T02:01:06;25.38;;;12.85;;
30617;SDS011;17384;51.214;9.202;2023-09-12T02:03:31;24.08;;;12.85;;
30617;SDS011;17384;51.214;9.202;2023-09-12T02:05:57;19.13;;;11.10;;
30617;SDS011;17384;51.214;9.202;2023-09-12T02:08:22;18.70;;;10.75;;
30617;SDS011;17384;51.214;9.202;2023-09-12T02:10:47;25.38;;;11.02;;
30617;SDS011;17384;51.214;9.202;2023-09-12T02:13:13;24.67;;;10.70;;
30617;SDS011;17384;51.214;9.202;2023-09-12T02:15:38;21.75;;;11.05;;
30617;SDS011;17384;51.214;9.202;2023-09-12T02:18:04;23.30;;;10.88;;
30617;SDS011;17384;51.214;9.202;2023-09-12T02:20:29;23.10;;;10.82;;
30617;SDS011;17384;51.214;9.202;2023-09-12T02:22:56;19.73;;;11.13;;
30617;SDS011;17384;51.214;9.202;2023-09-12T02:25:21;22.83;;;11.13;;
30617;SDS011;17384;51.214;9.202;2023-09-12T02:27:47;27.52;;;11.85;;
30617;SDS011;17384;51.214;9.202;2023-09-12T02:30:12;18.50;;;10.77;;
30617;SDS011;17384;51.214;9.202;2023-09-12T02:32:38;17.67;;;10.57;;
30617;SDS011;17384;51.214;9.202;2023-09-12T02:35:03;21.20;;;11.18;;
30617;SDS011;17384;51.214;9.202;2023-09-12T02:37:29;21.65;;;10.73;;
30617;SDS011;17384;51.214;9.202;2023-09-12T02:39:54;26.65;;;11.55;;
30617;SDS011;17384;51.214;9.202;2023-09-12T02:42:20;21.75;;;10.40;;
30617;SDS011;17384;51.214;9.202;2023-09-12T02:44:45;25.90;;;11.02;;
30617;SDS011;17384;51.214;9.202;2023-09-12T02:47:11;24.88;;;12.00;;
30617;SDS011;17384;51.214;9.202;2023-09-12T02:49:36;19.42;;;10.57;;
30617;SDS011;17384;51.214;9.202;2023-09-12T02:52:01;22.52;;;12.00;;
30617;SDS011;17384;51.214;9.202;2023-09-12T02:54:27;23.00;;;11.25;;
30617;SDS011;17384;51.214;9.202;2023-09-12T02:56:52;23.83;;;12.07;;
30617;SDS011;17384;51.214;9.202;2023-09-12T02:59:18;23.83;;;10.98;;
30617;SDS011;17384;51.214;9.202;2023-09-12T03:01:44;24.90;;;10.32;;
30617;SDS011;17384;51.214;9.202;2023-09-12T03:04:09;20.98;;;11.10;;
30617;SDS011;17384;51.214;9.202;2023-09-12T03:06:35;17.05;;;10.73;;
30617;SDS011;17384;51.214;9.202;2023-09-12T03:09:00;21.40;;;11.43;;
30617;SDS011;17384;51.214;9.202;2023-09-12T03:11:26;27.02;;;12.43;;
30617;SDS011;17384;51.214;9.202;2023-09-12T03:13:55;19.60;;;11.82;;
30617;SDS011;17384;51.214;9.202;2023-09-12T03:16:20;20.08;;;11.15;;
30617;SDS011;17384;51.214;9.202;2023-09-12T03:18:46;16.88;;;10.82;;
30617;SDS011;17384;51.214;9.202;2023-09-12T03:21:11;17.80;;;9.95;;
30617;SDS011;17384;51.214;9.202;2023-09-12T03:23:37;12.95;;;10.13;;
30617;SDS011;17384;51.214;9.202;2023-09-12T03:26:03;23.52;;;11.95;;
30617;SDS011;17384;51.214;9.202;2023-09-12T03:28:29;29.30;;;12.90;;
30617;SDS011;17384;51.214;9.202;2023-09-12T03:31:02;26.30;;;12.13;;
30617;SDS011;17384;51.214;9.202;2023-09-12T03:33:39;22.25;;;12.00;;
30617;SDS011;17384;51.214;9.202;2023-09-12T03:36:05;18.55;;;11.18;;
30617;SDS011;17384;51.214;9.202;2023-09-12T03:38:32;25.08;;;12.88;;
30617;SDS011;17384;51.214;9.202;2023-09-12T03:40:58;26.52;;;13.52;;
30617;SDS011;17384;51.214;9.202;2023-09-12T03:43:23;20.38;;;13.60;;
30617;SDS011;17384;51.214;9.202;2023-09-12T03:45:49;19.63;;;13.13;;
30617;SDS011;17384;51.214;9.202;2023-09-12T03:48:14;22.15;;;11.20;;
30617;SDS011;17384;51.214;9.202;2023-09-12T03:50:40;23.83;;;12.65;;
30617;SDS011;17384;51.214;9.202;2023-09-12T03:53:05;20.85;;;11.75;;
30617;SDS011;17384;51.214;9.202;2023-09-12T03:55:31;17.45;;;10.93;;
30617;SDS011;17384;51.214;9.202;2023-09-12T03:57:57;24.63;;;11.32;;
30617;SDS011;17384;51.214;9.202;2023-09-12T04:00:22;23.58;;;12.50;;
30617;SDS011;17384;51.214;9.202;2023-09-12T04:02:48;23.13;;;11.20;;
30617;SDS011;17384;51.214;9.202;2023-09-12T04:05:13;18.25;;;12.07;;
30617;SDS011;17384;51.214;9.202;2023-09-12T04:07:39;24.10;;;11.90;;
30617;SDS011;17384;51.214;9.202;2023-09-12T04:10:05;29.83;;;12.07;;
30617;SDS011;17384;51.214;9.202;2023-09-12T04:12:31;26.15;;;12.55;;
30617;SDS011;17384;51.214;9.202;2023-09-12T04:14:56;26.98;;;12.98;;
30617;SDS011;17384;51.214;9.202;2023-09-12T04:17:22;18.48;;;11.85;;
30617;SDS011;17384;51.214;9.202;2023-09-12T04:19:47;18.52;;;11.32;;
30617;SDS011;17384;51.214;9.202;2023-09-12T04:22:13;18.98;;;12.40;;
30617;SDS011;17384;51.214;9.202;2023-09-12T04:24:38;16.70;;;12.15;;
30617;SDS011;17384;51.214;9.202;2023-09-12T04:27:04;22.38;;;12.82;;
30617;SDS011;17384;51.214;9.202;2023-09-12T04:29:31;28.63;;;12.63;;
30617;SDS011;17384;51.214;9.202;2023-09-12T04:31:59;21.55;;;12.05;;
30617;SDS011;17384;51.214;9.202;2023-09-12T04:34:27;33.10;;;13.38;;
30617;SDS011;17384;51.214;9.202;2023-09-12T04:36:53;24.77;;;12.68;;
30617;SDS011;17384;51.214;9.202;2023-09-12T04:39:18;18.60;;;12.27;;
30617;SDS011;17384;51.214;9.202;2023-09-12T04:41:44;25.65;;;12.75;;
30617;SDS011;17384;51.214;9.202;2023-09-12T04:44:09;24.10;;;12.57;;
30617;SDS011;17384;51.214;9.202;2023-09-12T04:46:35;20.90;;;11.52;;
30617;SDS011;17384;51.214;9.202;2023-09-12T04:49:01;26.92;;;12.82;;
30617;SDS011;17384;51.214;9.202;2023-09-12T04:51:26;20.77;;;13.07;;
30617;SDS011;17384;51.214;9.202;2023-09-12T04:53:52;28.90;;;14.45;;
30617;SDS011;17384;51.214;9.202;2023-09-12T04:56:17;30.80;;;15.18;;
30617;SDS011;17384;51.214;9.202;2023-09-12T04:58:43;34.53;;;16.85;;
30617;SDS011;17384;51.214;9.202;2023-09-12T05:01:08;24.95;;;16.98;;
30617;SDS011;17384;51.214;9.202;2023-09-12T05:03:34;22.30;;;14.48;;
30617;SDS011;17384;51.214;9.202;2023-09-12T05:06:00;28.98;;;17.58;;
30617;SDS011;17384;51.214;9.202;2023-09-12T05:08:26;31.92;;;17.02;;
30617;SDS011;17384;51.214;9.202;2023-09-12T05:10:51;35.22;;;17.52;;
30617;SDS011;17384;51.214;9.202;2023-09-12T05:13:17;33.42;;;19.52;;
30617;SDS011;17384;51.214;9.202;2023-09-12T05:15:43;35.33;;;20.75;;
30617;SDS011;17384;51.214;9.202;2023-09-12T05:18:08;58.28;;;26.70;;
30617;SDS011;17384;51.214;9.202;2023-09-12T05:20:34;42.45;;;24.20;;
30617;SDS011;17384;51.214;9.202;2023-09-12T05:22:59;45.08;;;27.73;;
30617;SDS011;17384;51.214;9.202;2023-09-12T05:25:25;50.70;;;29.98;;
30617;SDS011;17384;51.214;9.202;2023-09-12T05:27:52;80.78;;;42.13;;
30617;SDS011;17384;51.214;9.202;2023-09-12T05:30:17;79.50;;;45.88;;
30617;SDS011;17384;51.214;9.202;2023-09-12T05:32:42;79.28;;;46.88;;
30617;SDS011;17384;51.214;9.202;2023-09-12T05:35:08;77.53;;;45.25;;
30617;SDS011;17384;51.214;9.202;2023-09-12T05:37:34;67.90;;;42.10;;
30617;SDS011;17384;51.214;9.202;2023-09-12T05:39:59;67.47;;;40.85;;
30617;SDS011;17384;51.214;9.202;2023-09-12T05:42:25;67.90;;;41.42;;
30617;SDS011;17384;51.214;9.202;2023-09-12T05:44:50;62.00;;;37.22;;
30617;SDS011;17384;51.214;9.202;2023-09-12T05:47:18;60.55;;;36.80;;
30617;SDS011;17384;51.214;9.202;2023-09-12T05:49:44;57.67;;;37.60;;
30617;SDS011;17384;51.214;9.202;2023-09-12T05:52:10;55.97;;;36.00;;
30617;SDS011;17384;51.214;9.202;2023-09-12T05:54:36;45.58;;;32.03;;
30617;SDS011;17384;51.214;9.202;2023-09-12T05:57:02;61.85;;;38.38;;
30617;SDS011;17384;51.214;9.202;2023-09-12T05:59:27;55.65;;;34.85;;
30617;SDS011;17384;51.214;9.202;2023-09-12T06:01:53;53.38;;;34.78;;
30617;SDS011;17384;51.214;9.202;2023-09-12T06:04:19;66.55;;;40.28;;
30617;SDS011;17384;51.214;9.202;2023-09-12T06:06:45;46.03;;;32.50;;
30617;SDS011;17384;51.214;9.202;2023-09-12T06:09:11;54.20;;;35.03;;
30617;SDS011;17384;51.214;9.202;2023-09-12T06:11:36;41.92;;;27.38;;
30617;SDS011;17384;51.214;9.202;2023-09-12T06:14:02;51.60;;;35.42;;
30617;SDS011;17384;51.214;9.202;2023-09-12T06:16:27;49.95;;;35.83;;
30617;SDS011;17384;51.214;9.202;2023-09-12T06:18:53;62.40;;;36.60;;
30617;SDS011;17384;51.214;9.202;2023-09-12T06:21:19;53.42;;;37.05;;
30617;SDS011;17384;51.214;9.202;2023-09-12T06:23:46;56.28;;;35.72;;
30617;SDS011;17384;51.214;9.202;2023-09-12T06:26:32;59.67;;;35.78;;
30617;SDS011;17384;51.214;9.202;2023-09-12T06:28:57;50.53;;;33.38;;
30617;SDS011;17384;51.214;9.202;2023-09-12T06:31:23;56.22;;;36.83;;
30617;SDS011;17384;51.214;9.202;2023-09-12T06:33:48;49.45;;;33.75;;
30617;SDS011;17384;51.214;9.202;2023-09-12T06:36:13;44.35;;;31.20;;
30617;SDS011;17384;51.214;9.202;2023-09-12T06:38:39;50.17;;;33.58;;
30617;SDS011;17384;51.214;9.202;2023-09-12T06:41:04;44.53;;;31.08;;
30617;SDS011;17384;51.214;9.202;2023-09-12T06:43:30;51.25;;;33.78;;
30617;SDS011;17384;51.214;9.202;2023-09-12T06:45:55;57.40;;;34.38;;
30617;SDS011;17384;51.214;9.202;2023-09-12T06:48:21;47.65;;;30.50;;
30617;SDS011;17384;51.214;9.202;2023-09-12T06:50:46;40.88;;;29.25;;
30617;SDS011;17384;51.214;9.202;2023-09-12T06:53:12;39.67;;;28.48;;
30617;SDS011;17384;51.214;9.202;2023-09-12T06:55:37;46.53;;;29.02;;
30617;SDS011;17384;51.214;9.202;2023-09-12T06:58:03;29.95;;;22.80;;
30617;SDS011;17384;51.214;9.202;2023-09-12T07:00:28;39.40;;;24.73;;
30617;SDS011;17384;51.214;9.202;2023-09-12T07:02:54;37.67;;;25.23;;
30617;SDS011;17384;51.214;9.202;2023-09-12T07:05:19;38.70;;;20.85;;
30617;SDS011;17384;51.214;9.202;2023-09-12T07:07:45;32.38;;;22.08;;
30617;SDS011;17384;51.214;9.202;2023-09-12T07:10:10;41.85;;;20.70;;
30617;SDS011;17384;51.214;9.202;2023-09-12T07:12:36;32.30;;;21.77;;
30617;SDS011;17384;51.214;9.202;2023-09-12T07:15:02;32.10;;;21.73;;
30617;SDS011;17384;51.214;9.202;2023-09-12T07:17:28;32.80;;;19.15;;
30617;SDS011;17384;51.214;9.202;2023-09-12T07:19:54;25.50;;;17.95;;
30617;SDS011;17384;51.214;9.202;2023-09-12T07:22:19;28.00;;;19.17;;
30617;SDS011;17384;51.214;9.202;2023-09-12T07:24:45;29.45;;;16.80;;
30617;SDS011;17384;51.214;9.202;2023-09-12T07:27:10;30.65;;;19.65;;
30617;SDS011;17384;51.214;9.202;2023-09-12T07:29:35;27.27;;;16.75;;
30617;SDS011;17384;51.214;9.202;2023-09-12T07:32:01;30.20;;;17.08;;
30617;SDS011;17384;51.214;9.202;2023-09-12T07:34:27;27.52;;;16.88;;
30617;SDS011;17384;51.214;9.202;2023-09-12T07:36:52;28.23;;;17.38;;
30617;SDS011;17384;51.214;9.202;2023-09-12T07:39:19;28.17;;;17.92;;
30617;SDS011;17384;51.214;9.202;2023-09-12T07:41:45;23.70;;;15.88;;
30617;SDS011;17384;51.214;9.202;2023-09-12T07:44:11;26.25;;;15.82;;
30617;SDS011;17384;51.214;9.202;2023-09-12T07:46:39;24.60;;;16.17;;
30617;SDS011;17384;51.214;9.202;2023-09-12T07:49:05;29.10;;;17.70;;
30617;SDS011;17384;51.214;9.202;2023-09-12T07:51:30;32.83;;;17.55;;
30617;SDS011;17384;51.214;9.202;2023-09-12T07:53:56;32.47;;;17.33;;
30617;SDS011;17384;51.214;9.202;2023-09-12T07:56:21;25.27;;;15.98;;
30617;SDS011;17384;51.214;9.202;2023-09-12T07:58:48;28.45;;;17.55;;
30617;SDS011;17384;51.214;9.202;2023-09-12T08:01:14;30.77;;;16.65;;
30617;SDS011;17384;51.214;9.202;2023-09-12T08:03:42;25.52;;;16.75;;
30617;SDS011;17384;51.214;9.202;2023-09-12T08:06:08;28.75;;;16.55;;
30617;SDS011;17384;51.214;9.202;2023-09-12T08:08:33;29.48;;;17.35;;
30617;SDS011;17384;51.214;9.202;2023-09-12T08:10:59;31.83;;;17.10;;
30617;SDS011;17384;51.214;9.202;2023-09-12T08:13:28;32.28;;;16.65;;
30617;SDS011;17384;51.214;9.202;2023-09-12T08:15:55;33.78;;;18.60;;
30617;SDS011;17384;51.214;9.202;2023-09-12T08:18:21;24.98;;;16.50;;
30617;SDS011;17384;51.214;9.202;2023-09-12T08:20:47;24.63;;;15.70;;
30617;SDS011;17384;51.214;9.202;2023-09-12T08:23:12;26.92;;;17.13;;
30617;SDS011;17384;51.214;9.202;2023-09-12T08:25:41;32.97;;;19.30;;
30617;SDS011;17384;51.214;9.202;2023-09-12T08:28:06;30.67;;;17.92;;
30617;SDS011;17384;51.214;9.202;2023-09-12T08:30:32;27.33;;;17.75;;
30617;SDS011;17384;51.214;9.202;2023-09-12T08:32:58;21.88;;;16.63;;
30617;SDS011;17384;51.214;9.202;2023-09-12T08:35:23;28.83;;;18.45;;
30617;SDS011;17384;51.214;9.202;2023-09-12T08:37:51;30.52;;;17.05;;
30617;SDS011;17384;51.214;9.202;2023-09-12T08:40:16;30.17;;;19.27;;
30617;SDS011;17384;51.214;9.202;2023-09-12T08:42:43;24.77;;;16.17;;
30617;SDS011;17384;51.214;9.202;2023-09-12T08:47:40;24.30;;;14.32;;
30617;SDS011;17384;51.214;9.202;2023-09-12T08:50:09;23.13;;;13.13;;
30617;SDS011;17384;51.214;9.202;2023-09-12T08:52:37;26.35;;;14.63;;
30617;SDS011;17384;51.214;9.202;2023-09-12T08:55:02;22.85;;;12.23;;
30617;SDS011;17384;51.214;9.202;2023-09-12T08:57:29;25.98;;;14.80;;
30617;SDS011;17384;51.214;9.202;2023-09-12T09:00:00;20.00;;;13.20;;
30617;SDS011;17384;51.214;9.202;2023-09-12T09:02:31;29.40;;;14.68;;
30617;SDS011;17384;51.214;9.202;2023-09-12T09:04:59;21.65;;;11.98;;
30617;SDS011;17384;51.214;9.202;2023-09-12T09:07:27;22.27;;;13.70;;
30617;SDS011;17384;51.214;9.202;2023-09-12T09:09:54;25.73;;;13.80;;
30617;SDS011;17384;51.214;9.202;2023-09-12T09:12:21;25.58;;;14.10;;
30617;SDS011;17384;51.214;9.202;2023-09-12T09:14:46;23.33;;;12.35;;
30617;SDS011;17384;51.214;9.202;2023-09-12T09:17:12;23.20;;;12.38;;
30617;SDS011;17384;51.214;9.202;2023-09-12T09:19:42;29.05;;;13.02;;
30617;SDS011;17384;51.214;9.202;2023-09-12T09:22:10;22.50;;;12.95;;
30617;SDS011;17384;51.214;9.202;2023-09-12T09:24:35;23.35;;;12.80;;
30617;SDS011;17384;51.214;9.202;2023-09-12T09:27:01;21.33;;;12.48;;
30617;SDS011;17384;51.214;9.202;2023-09-12T09:29:27;23.15;;;10.68;;
30617;SDS011;17384;51.214;9.202;2023-09-12T09:32:01;29.77;;;16.30;;
30617;SDS011;17384;51.214;9.202;2023-09-12T09:34:29;20.80;;;12.23;;
30617;SDS011;17384;51.214;9.202;2023-09-12T09:36:57;19.83;;;12.60;;
30617;SDS011;17384;51.214;9.202;2023-09-12T09:39:27;27.20;;;13.18;;
30617;SDS011;17384;51.214;9.202;2023-09-12T09:41:56;23.63;;;13.15;;
30617;SDS011;17384;51.214;9.202;2023-09-12T09:44:23;20.38;;;11.05;;
30617;SDS011;17384;51.214;9.202;2023-09-12T09:46:56;19.33;;;10.80;;
30617;SDS011;17384;51.214;9.202;2023-09-12T09:49:27;16.83;;;9.73;;
30617;SDS011;17384;51.214;9.202;2023-09-12T09:51:55;18.98;;;9.40;;
30617;SDS011;17384;51.214;9.202;2023-09-12T09:54:23;20.70;;;9.45;;
30617;SDS011;17384;51.214;9.202;2023-09-12T09:56:53;21.23;;;8.95;;
30617;SDS011;17384;51.214;9.202;2023-09-12T09:59:25;18.65;;;9.02;;
30617;SDS011;17384;51.214;9.202;2023-09-12T10:01:55;21.27;;;8.48;;
30617;SDS011;17384;51.214;9.202;2023-09-12T10:04:22;19.42;;;8.38;;
30617;SDS011;17384;51.214;9.202;2023-09-12T10:06:48;20.00;;;7.93;;
30617;SDS011;17384;51.214;9.202;2023-09-12T10:09:15;19.45;;;7.82;;
30617;SDS011;17384;51.214;9.202;2023-09-12T10:11:44;19.35;;;7.10;;
30617;SDS011;17384;51.214;9.202;2023-09-12T10:14:12;15.32;;;7.03;;
30617;SDS011;17384;51.214;9.202;2023-09-12T10:16:45;25.00;;;7.80;;
30617;SDS011;17384;51.214;9.202;2023-09-12T10:24:41;16.45;;;6.20;;
30617;SDS011;17384;51.214;9.202;2023-09-12T10:27:08;14.65;;;6.30;;
30617;SDS011;17384;51.214;9.202;2023-09-12T10:29:34;17.67;;;6.57;;
30617;SDS011;17384;51.214;9.202;2023-09-12T10:32:00;14.90;;;6.07;;
30617;SDS011;17384;51.214;9.202;2023-09-12T10:34:26;10.13;;;5.78;;
30617;SDS011;17384;51.214;9.202;2023-09-12T10:36:55;10.55;;;5.53;;
30617;SDS011;17384;51.214;9.202;2023-09-12T10:39:24;13.70;;;5.85;;
30617;SDS011;17384;51.214;9.202;2023-09-12T10:41:53;14.05;;;6.18;;
30617;SDS011;17384;51.214;9.202;2023-09-12T10:44:20;8.13;;;5.50;;
30617;SDS011;17384;51.214;9.202;2023-09-12T10:46:46;15.25;;;5.78;;
30617;SDS011;17384;51.214;9.202;2023-09-12T10:49:14;12.88;;;5.78;;
30617;SDS011;17384;51.214;9.202;2023-09-12T10:51:41;14.57;;;5.78;;
30617;SDS011;17384;51.214;9.202;2023-09-12T10:54:12;19.65;;;5.40;;
30617;SDS011;17384;51.214;9.202;2023-09-12T10:57:01;12.80;;;6.25;;
30617;SDS011;17384;51.214;9.202;2023-09-12T10:59:31;13.60;;;5.80;;
30617;SDS011;17384;51.214;9.202;2023-09-12T11:02:26;8.57;;;5.10;;
30617;SDS011;17384;51.214;9.202;2023-09-12T11:04:52;9.77;;;4.97;;
30617;SDS011;17384;51.214;9.202;2023-09-12T11:07:30;16.70;;;6.10;;
30617;SDS011;17384;51.214;9.202;2023-09-12T11:12:40;13.27;;;5.55;;
30617;SDS011;17384;51.214;9.202;2023-09-12T11:15:07;12.82;;;5.60;;
30617;SDS011;17384;51.214;9.202;2023-09-12T11:18:18;13.27;;;6.10;;
30617;SDS011;17384;51.214;9.202;2023-09-12T11:20:25;16.02;;;6.43;;
30617;SDS011;17384;51.214;9.202;2023-09-12T11:23:11;11.55;;;5.13;;
30617;SDS011;17384;51.214;9.202;2023-09-12T11:25:36;9.75;;;5.30;;
30617;SDS011;17384;51.214;9.202;2023-09-12T11:28:03;11.52;;;4.70;;
30617;SDS011;17384;51.214;9.202;2023-09-12T11:30:29;13.70;;;5.47;;
30617;SDS011;17384;51.214;9.202;2023-09-12T11:33:01;12.48;;;5.72;;
30617;SDS011;17384;51.214;9.202;2023-09-12T11:35:29;10.43;;;5.30;;
30617;SDS011;17384;51.214;9.202;2023-09-12T11:38:01;18.75;;;5.88;;
30617;SDS011;17384;51.214;9.202;2023-09-12T11:42:58;10.65;;;5.28;;
30617;SDS011;17384;51.214;9.202;2023-09-12T11:45:24;10.52;;;5.22;;
30617;SDS011;17384;51.214;9.202;2023-09-12T11:47:50;14.82;;;6.03;;
30617;SDS011;17384;51.214;9.202;2023-09-12T11:50:34;11.82;;;5.90;;
30617;SDS011;17384;51.214;9.202;2023-09-12T11:53:05;11.90;;;5.28;;
30617;SDS011;17384;51.214;9.202;2023-09-12T11:55:48;12.75;;;5.82;;
30617;SDS011;17384;51.214;9.202;2023-09-12T11:58:16;12.02;;;5.28;;
30617;SDS011;17384;51.214;9.202;2023-09-12T12:00:47;14.73;;;5.75;;
30617;SDS011;17384;51.214;9.202;2023-09-12T12:03:14;12.45;;;5.15;;
30617;SDS011;17384;51.214;9.202;2023-09-12T12:05:40;10.55;;;5.88;;
30617;SDS011;17384;51.214;9.202;2023-09-12T12:08:10;10.77;;;6.20;;
30617;SDS011;17384;51.214;9.202;2023-09-12T12:10:35;11.50;;;5.60;;
30617;SDS011;17384;51.214;9.202;2023-09-12T12:13:03;11.85;;;5.65;;
30617;SDS011;17384;51.214;9.202;2023-09-12T12:15:28;8.27;;;5.03;;
30617;SDS011;17384;51.214;9.202;2023-09-12T12:17:54;7.45;;;5.63;;
30617;SDS011;17384;51.214;9.202;2023-09-12T12:20:21;13.55;;;5.80;;
30617;SDS011;17384;51.214;9.202;2023-09-12T12:22:48;10.48;;;5.70;;
30617;SDS011;17384;51.214;9.202;2023-09-12T12:25:16;13.45;;;6.15;;
30617;SDS011;17384;51.214;9.202;2023-09-12T12:27:42;15.38;;;5.80;;
30617;SDS011;17384;51.214;9.202;2023-09-12T12:30:08;17.80;;;5.57;;
30617;SDS011;17384;51.214;9.202;2023-09-12T12:32:39;13.40;;;5.68;;
30617;SDS011;17384;51.214;9.202;2023-09-12T12:35:09;11.00;;;5.55;;
30617;SDS011;17384;51.214;9.202;2023-09-12T12:37:35;9.20;;;5.32;;
30617;SDS011;17384;51.214;9.202;2023-09-12T12:40:02;12.18;;;5.68;;
30617;SDS011;17384;51.214;9.202;2023-09-12T12:42:34;12.80;;;5.50;;
30617;SDS011;17384;51.214;9.202;2023-09-12T12:45:10;11.05;;;5.55;;
30617;SDS011;17384;51.214;9.202;2023-09-12T12:47:37;8.85;;;5.07;;
30617;SDS011;17384;51.214;9.202;2023-09-12T12:50:06;11.32;;;5.38;;
30617;SDS011;17384;51.214;9.202;2023-09-12T12:52:33;10.02;;;4.90;;
30617;SDS011;17384;51.214;9.202;2023-09-12T12:55:05;5.78;;;4.75;;
30617;SDS011;17384;51.214;9.202;2023-09-12T12:57:32;7.60;;;4.97;;
30617;SDS011;17384;51.214;9.202;2023-09-12T13:00:01;11.23;;;5.43;;
30617;SDS011;17384;51.214;9.202;2023-09-12T13:02:28;12.10;;;5.25;;
30617;SDS011;17384;51.214;9.202;2023-09-12T13:04:53;11.60;;;5.80;;
30617;SDS011;17384;51.214;9.202;2023-09-12T13:07:18;12.27;;;5.25;;
30617;SDS011;17384;51.214;9.202;2023-09-12T13:09:44;10.20;;;5.70;;
30617;SDS011;17384;51.214;9.202;2023-09-12T13:12:13;10.52;;;6.03;;
30617;SDS011;17384;51.214;9.202;2023-09-12T13:14:39;9.43;;;5.88;;
30617;SDS011;17384;51.214;9.202;2023-09-12T13:17:05;12.57;;;5.45;;
30617;SDS011;17384;51.214;9.202;2023-09-12T13:19:31;12.68;;;6.00;;
30617;SDS011;17384;51.214;9.202;2023-09-12T13:21:56;16.63;;;5.68;;
30617;SDS011;17384;51.214;9.202;2023-09-12T13:24:22;11.93;;;5.45;;
30617;SDS011;17384;51.214;9.202;2023-09-12T13:26:48;10.65;;;5.28;;
30617;SDS011;17384;51.214;9.202;2023-09-12T13:29:14;15.07;;;5.78;;
30617;SDS011;17384;51.214;9.202;2023-09-12T13:31:39;14.10;;;6.05;;
30617;SDS011;17384;51.214;9.202;2023-09-12T13:34:05;13.57;;;5.68;;
30617;SDS011;17384;51.214;9.202;2023-09-12T13:36:30;10.75;;;5.32;;
30617;SDS011;17384;51.214;9.202;2023-09-12T13:38:55;10.65;;;5.38;;
30617;SDS011;17384;51.214;9.202;2023-09-12T13:41:21;15.65;;;6.53;;
30617;SDS011;17384;51.214;9.202;2023-09-12T13:43:48;21.63;;;6.63;;
30617;SDS011;17384;51.214;9.202;2023-09-12T13:46:13;17.75;;;7.13;;
30617;SDS011;17384;51.214;9.202;2023-09-12T13:48:39;20.05;;;8.18;;
30617;SDS011;17384;51.214;9.202;2023-09-12T13:51:05;15.18;;;6.38;;
30617;SDS011;17384;51.214;9.202;2023-09-12T13:53:31;12.82;;;6.53;;
30617;SDS011;17384;51.214;9.202;2023-09-12T13:55:56;14.38;;;6.45;;
30617;SDS011;17384;51.214;9.202;2023-09-12T13:58:23;22.90;;;7.28;;
30617;SDS011;17384;51.214;9.202;2023-09-12T14:00:49;11.95;;;6.78;;
30617;SDS011;17384;51.214;9.202;2023-09-12T14:03:14;11.38;;;6.22;;
30617;SDS011;17384;51.214;9.202;2023-09-12T14:05:40;15.15;;;6.80;;
30617;SDS011;17384;51.214;9.202;2023-09-12T14:08:05;13.38;;;7.05;;
30617;SDS011;17384;51.214;9.202;2023-09-12T14:10:31;20.25;;;6.93;;
30617;SDS011;17384;51.214;9.202;2023-09-12T14:13:14;9.85;;;6.22;;
30617;SDS011;17384;51.214;9.202;2023-09-12T14:15:40;14.93;;;6.55;;
30617;SDS011;17384;51.214;9.202;2023-09-12T14:18:05;14.73;;;6.88;;
30617;SDS011;17384;51.214;9.202;2023-09-12T14:20:31;8.65;;;5.78;;
30617;SDS011;17384;51.214;9.202;2023-09-12T14:22:58;18.67;;;5.50;;
30617;SDS011;17384;51.214;9.202;2023-09-12T14:25:24;12.32;;;5.63;;
30617;SDS011;17384;51.214;9.202;2023-09-12T14:27:50;15.43;;;6.03;;
30617;SDS011;17384;51.214;9.202;2023-09-12T14:30:16;9.55;;;5.43;;
30617;SDS011;17384;51.214;9.202;2023-09-12T14:32:47;8.55;;;5.47;;
30617;SDS011;17384;51.214;9.202;2023-09-12T14:35:13;12.70;;;5.60;;
30617;SDS011;17384;51.214;9.202;2023-09-12T14:37:38;12.88;;;5.70;;
30617;SDS011;17384;51.214;9.202;2023-09-12T14:40:04;12.85;;;6.15;;
30617;SDS011;17384;51.214;9.202;2023-09-12T14:42:31;8.30;;;5.63;;